createdAt,value
2022-11-07T00:01:58.959Z,8.00
2022-11-07T00:06:42.815Z,9.30
2022-11-07T00:11:26.247Z,8.80
2022-11-07T00:16:12.669Z,11.37
2022-11-07T00:20:56.396Z,12.73
2022-11-07T00:25:39.895Z,14.53
2022-11-07T00:30:23.614Z,19.60
2022-11-07T00:35:09.140Z,17.20
2022-11-07T00:39:52.930Z,14.43
2022-11-07T00:44:36.422Z,15.47
2022-11-07T00:49:19.976Z,20.40
2022-11-07T00:54:05.614Z,18.00
2022-11-07T00:58:49.485Z,17.20
2022-11-07T01:03:50.480Z,17.03
2022-11-07T01:08:34.294Z,17.10
2022-11-07T01:13:19.232Z,18.77
2022-11-07T01:18:02.763Z,18.27
2022-11-07T01:22:46.254Z,17.47
2022-11-07T01:27:30.705Z,17.93
2022-11-07T01:32:15.658Z,17.73
2022-11-07T01:36:59.552Z,17.60
2022-11-07T01:41:43.105Z,15.60
2022-11-07T01:46:30.752Z,16.80
2022-11-07T01:51:18.241Z,14.40
2022-11-07T01:56:01.817Z,15.93
2022-11-07T02:00:45.403Z,17.03
2022-11-07T02:05:32.797Z,12.90
2022-11-07T02:10:18.345Z,13.33
2022-11-07T02:15:02.482Z,13.53
2022-11-07T02:19:48.605Z,11.07
2022-11-07T02:24:36.288Z,7.87
2022-11-07T02:29:20.670Z,13.50
2022-11-07T02:34:04.266Z,18.27
2022-11-07T02:38:51.825Z,15.80
2022-11-07T02:43:38.755Z,8.33
2022-11-07T02:48:22.485Z,7.87
2022-11-07T02:53:06.219Z,3.70
2022-11-07T02:57:50.481Z,5.10
2022-11-07T03:02:35.437Z,6.80
2022-11-07T03:07:19.005Z,5.57
2022-11-07T03:12:02.422Z,4.10
2022-11-07T03:16:45.862Z,6.10
2022-11-07T03:21:30.690Z,4.50
2022-11-07T03:26:14.196Z,3.87
2022-11-07T03:31:01.726Z,6.37
2022-11-07T03:35:45.226Z,2.33
2022-11-07T03:40:30.131Z,5.07
2022-11-07T03:45:15.422Z,2.10
2022-11-07T03:49:58.816Z,2.67
2022-11-07T03:54:42.343Z,2.60
2022-11-07T03:59:27.428Z,2.37
2022-11-07T04:04:10.894Z,2.50
2022-11-07T04:08:54.517Z,2.33
2022-11-07T04:13:55.612Z,4.10
2022-11-07T04:18:40.458Z,2.50
2022-11-07T04:23:23.935Z,2.43
2022-11-07T04:28:07.471Z,3.77
2022-11-07T04:32:52.941Z,2.83
2022-11-07T04:37:37.762Z,2.93
2022-11-07T04:42:21.248Z,2.37
2022-11-07T04:47:04.737Z,2.60
2022-11-07T04:51:48.378Z,2.77
2022-11-07T04:56:34.543Z,2.10
2022-11-07T05:01:18.547Z,2.93
2022-11-07T05:06:02.034Z,3.00
2022-11-07T05:10:45.619Z,4.37
2022-11-07T05:15:30.472Z,4.07
2022-11-07T05:20:28.925Z,12.70
2022-11-07T05:25:12.412Z,3.00
2022-11-07T05:29:55.900Z,1.83
2022-11-07T05:34:41.027Z,3.23
2022-11-07T05:39:24.782Z,7.53
2022-11-07T05:44:08.383Z,9.10
2022-11-07T05:48:56.685Z,5.00
2022-11-07T05:53:45.532Z,1.47
2022-11-07T05:58:29.034Z,2.30
2022-11-07T06:03:13.195Z,2.70
2022-11-07T06:07:57.490Z,2.47
2022-11-07T06:12:42.419Z,2.07
2022-11-07T06:17:26.087Z,1.30
2022-11-07T06:22:09.514Z,3.93
2022-11-07T06:26:53.015Z,2.80
2022-11-07T06:31:37.954Z,1.63
2022-11-07T06:36:21.436Z,4.87
2022-11-07T06:41:09.224Z,2.37
2022-11-07T06:45:52.719Z,2.83
2022-11-07T06:50:38.304Z,3.93
2022-11-07T06:55:22.223Z,1.73
2022-11-07T07:00:06.935Z,2.50
2022-11-07T07:04:51.067Z,1.80
2022-11-07T07:09:35.952Z,1.90
2022-11-07T07:14:19.585Z,1.40
2022-11-07T07:19:03.111Z,0.90
2022-11-07T07:23:46.536Z,2.07
2022-11-07T07:28:31.793Z,1.73
2022-11-07T07:33:15.428Z,1.30
2022-11-07T07:37:59.090Z,1.17
2022-11-07T07:42:43.847Z,1.27
2022-11-07T07:47:28.708Z,3.43
2022-11-07T07:52:12.144Z,4.27
2022-11-07T07:56:55.662Z,4.23
2022-11-07T08:01:40.100Z,2.50
2022-11-07T08:06:25.250Z,1.83
2022-11-07T08:11:11.377Z,2.10
2022-11-07T08:15:55.235Z,1.73
2022-11-07T08:20:38.716Z,8.13
2022-11-07T08:25:23.701Z,5.27
2022-11-07T08:30:13.795Z,6.87
2022-11-07T08:35:00.202Z,8.67
2022-11-07T08:39:43.774Z,7.07
2022-11-07T08:44:28.706Z,4.73
2022-11-07T08:49:12.542Z,2.00
2022-11-07T08:53:56.110Z,1.07
2022-11-07T08:58:40.093Z,4.30
2022-11-07T09:08:28.459Z,4.90
2022-11-07T09:13:12.006Z,1.10
2022-11-07T09:17:55.880Z,2.30
2022-11-07T09:22:41.046Z,5.50
2022-11-07T09:27:24.573Z,3.83
2022-11-07T09:32:23.700Z,4.30
2022-11-07T09:37:12.016Z,9.00
2022-11-07T09:42:02.683Z,16.50
2022-11-07T09:46:57.163Z,5.00
2022-11-07T09:51:43.993Z,3.10
2022-11-07T09:56:29.239Z,4.17
2022-11-07T10:01:18.018Z,8.93
2022-11-07T10:06:08.179Z,15.38
2022-11-07T10:10:56.747Z,26.55
2022-11-07T10:15:52.696Z,11.55
2022-11-07T10:20:50.481Z,2.60
2022-11-07T10:25:41.480Z,2.80
2022-11-07T10:30:24.949Z,1.52
2022-11-07T10:35:20.831Z,2.85
2022-11-07T10:40:16.065Z,2.42
2022-11-07T10:45:00.966Z,3.47
2022-11-07T10:49:56.495Z,2.78
2022-11-07T10:54:40.543Z,1.35
2022-11-07T10:59:34.603Z,2.25
2022-11-07T11:04:23.811Z,3.42
2022-11-07T11:09:16.387Z,2.30
2022-11-07T11:14:05.497Z,3.90
2022-11-07T11:18:53.100Z,1.15
2022-11-07T11:23:38.613Z,2.55
2022-11-07T11:28:27.021Z,1.52
2022-11-07T11:33:18.353Z,3.88
2022-11-07T11:38:11.970Z,1.02
2022-11-07T11:43:01.097Z,1.48
2022-11-07T11:47:48.974Z,1.48
2022-11-07T11:52:33.150Z,5.18
2022-11-07T11:57:24.415Z,2.33
2022-11-07T12:02:34.176Z,1.90
2022-11-07T12:07:34.295Z,6.43
2022-11-07T12:12:29.178Z,1.33
2022-11-07T12:17:19.685Z,2.40
2022-11-07T12:22:13.848Z,1.73
2022-11-07T12:27:05.698Z,1.73
2022-11-07T12:32:08.907Z,0.85
2022-11-07T12:37:05.812Z,1.20
2022-11-07T12:41:58.522Z,3.67
2022-11-07T12:46:49.480Z,4.53
2022-11-07T12:51:47.773Z,4.28
2022-11-07T12:56:35.158Z,4.55
2022-11-07T13:01:25.240Z,10.20
2022-11-07T13:06:15.633Z,5.45
2022-11-07T13:11:05.839Z,1.48
2022-11-07T13:16:14.088Z,1.40
2022-11-07T13:21:01.860Z,3.63
2022-11-07T13:25:58.443Z,1.40
2022-11-07T13:30:44.000Z,1.20
2022-11-07T13:35:29.626Z,1.33
2022-11-07T13:40:24.519Z,1.15
2022-11-07T13:45:22.959Z,5.95
2022-11-07T13:50:18.219Z,1.40
2022-11-07T13:55:09.938Z,2.58
2022-11-07T13:59:58.227Z,2.58
2022-11-07T14:05:10.095Z,0.98
2022-11-07T14:09:59.283Z,1.27
2022-11-07T14:14:42.919Z,1.60
2022-11-07T14:19:30.450Z,1.70
2022-11-07T14:24:26.395Z,5.88
2022-11-07T14:29:23.020Z,2.75
2022-11-07T14:34:18.295Z,1.75
2022-11-07T14:39:05.119Z,3.45
2022-11-07T14:43:49.690Z,2.80
2022-11-07T14:48:35.578Z,5.47
2022-11-07T14:53:23.999Z,2.10
2022-11-07T14:58:08.360Z,4.78
2022-11-07T15:02:54.515Z,4.97
2022-11-07T15:07:48.303Z,10.70
2022-11-07T15:12:39.203Z,20.87
2022-11-07T15:17:25.004Z,17.53
2022-11-07T15:22:25.737Z,20.93
2022-11-07T15:27:21.722Z,12.27
2022-11-07T15:32:14.091Z,5.37
2022-11-07T15:36:57.731Z,6.93
2022-11-07T15:41:41.625Z,3.10
2022-11-07T15:46:31.564Z,4.77
2022-11-07T15:51:15.082Z,12.07
2022-11-07T15:56:00.913Z,11.30
2022-11-07T16:00:44.662Z,10.90
2022-11-07T16:05:29.527Z,5.50
2022-11-07T16:10:20.929Z,8.40
2022-11-07T16:15:05.629Z,6.83
2022-11-07T16:19:49.354Z,11.43
2022-11-07T16:24:34.351Z,8.93
2022-11-07T16:29:18.307Z,9.97
2022-11-07T16:34:01.863Z,11.97
2022-11-07T16:38:45.677Z,12.47
2022-11-07T16:43:35.234Z,11.53
2022-11-07T16:48:22.267Z,12.63
2022-11-07T16:53:07.553Z,17.87
2022-11-07T16:57:51.471Z,20.77
2022-11-07T17:02:36.915Z,21.30
2022-11-07T17:07:23.381Z,13.70
2022-11-07T17:12:12.266Z,10.23
2022-11-07T17:17:01.759Z,15.60
2022-11-07T17:21:49.659Z,12.43
2022-11-07T17:26:38.084Z,13.67
2022-11-07T17:31:22.412Z,10.03
2022-11-07T17:36:09.393Z,11.93
2022-11-07T17:40:54.927Z,13.87
2022-11-07T17:45:39.457Z,8.40
2022-11-07T17:50:25.059Z,8.33
2022-11-07T17:55:10.777Z,12.40
2022-11-07T17:59:56.733Z,9.93
2022-11-07T18:04:41.658Z,13.83
2022-11-07T18:09:26.972Z,11.40
2022-11-07T18:14:15.174Z,12.10
2022-11-07T18:19:08.191Z,9.57
2022-11-07T18:23:53.454Z,9.97
2022-11-07T18:28:40.862Z,8.87
2022-11-07T18:33:25.938Z,6.90
2022-11-07T18:38:15.876Z,6.97
2022-11-07T18:43:04.731Z,11.83
2022-11-07T18:47:49.595Z,10.70
2022-11-07T18:52:34.700Z,11.27
2022-11-07T18:57:20.694Z,13.27
2022-11-07T19:02:06.249Z,11.33
2022-11-07T19:06:59.850Z,9.30
2022-11-07T19:11:46.655Z,10.50
2022-11-07T19:16:34.200Z,6.53
2022-11-07T19:21:20.200Z,6.57
2022-11-07T19:26:05.288Z,7.47
2022-11-07T19:30:51.013Z,11.97
2022-11-07T19:35:38.454Z,24.77
2022-11-07T19:40:25.550Z,11.90
2022-11-07T19:45:11.188Z,9.80
2022-11-07T19:49:56.012Z,8.67
2022-11-07T19:54:42.826Z,7.73
2022-11-07T19:59:26.816Z,8.80
2022-11-07T20:04:10.303Z,8.67
2022-11-07T20:08:55.446Z,6.73
2022-11-07T20:13:44.933Z,12.50
2022-11-07T20:18:34.370Z,8.83
2022-11-07T20:23:18.863Z,6.83
2022-11-07T20:28:04.772Z,5.73
2022-11-07T20:32:54.684Z,7.83
2022-11-07T20:37:39.763Z,11.93
2022-11-07T20:42:24.404Z,20.67
2022-11-07T20:47:09.545Z,18.37
2022-11-07T20:51:56.076Z,17.83
2022-11-07T20:56:42.481Z,17.57
2022-11-07T21:01:36.587Z,19.53
2022-11-07T21:06:23.430Z,22.97
2022-11-07T21:11:11.607Z,15.87
2022-11-07T21:15:57.959Z,17.30
2022-11-07T21:20:42.498Z,14.37
2022-11-07T21:25:27.200Z,13.30
2022-11-07T21:30:14.818Z,14.00
2022-11-07T21:34:59.034Z,10.23
2022-11-07T21:39:43.083Z,5.13
2022-11-07T21:44:26.634Z,7.23
2022-11-07T21:49:11.847Z,5.07
2022-11-07T21:53:55.812Z,6.07
2022-11-07T21:58:39.444Z,5.70
2022-11-07T22:03:43.729Z,12.57
2022-11-07T22:08:30.060Z,8.90
2022-11-07T22:13:13.560Z,5.90
2022-11-07T22:17:57.026Z,7.97
2022-11-07T22:22:40.517Z,8.90
2022-11-07T22:27:25.837Z,7.27
2022-11-07T22:32:09.327Z,8.77
2022-11-07T22:36:52.800Z,5.33
2022-11-07T22:41:36.300Z,6.03
2022-11-07T22:46:25.105Z,5.67
2022-11-07T22:51:11.400Z,3.40
2022-11-07T22:55:54.884Z,6.77
2022-11-07T23:00:38.345Z,6.10
2022-11-07T23:05:23.322Z,6.80
2022-11-07T23:10:07.823Z,8.80
2022-11-07T23:14:51.565Z,10.10
2022-11-07T23:19:35.089Z,11.17
2022-11-07T23:24:20.859Z,10.97
2022-11-07T23:29:10.509Z,12.27
2022-11-07T23:33:55.187Z,11.83
2022-11-07T23:38:38.737Z,10.63
2022-11-07T23:43:24.329Z,10.20
2022-11-07T23:48:27.199Z,13.60
2022-11-07T23:53:31.110Z,10.60
2022-11-07T23:58:32.091Z,7.87
